Time;durP1;ratioP1;P1;durP2;ratioP2;P2;SDS_P1;SDS_P2;PMS_P1;PMS_P2;Temp;Humidity;BMP_temperature;BMP_pressure;BME280_temperature;BME280_humidity;BME280_pressure;Samples;Min_cycle;Max_cycle;Signal;HPM_P1;HPM_P2
2022/01/22 00:01:43;;;;;;;;;;;;;;;25.55;19.82;100981.03;5019933;28;818;-42
2022/01/22 00:04:09;;;;;;;;;;;;;;;25.59;19.99;100986.88;5019608;28;937;-42
2022/01/22 00:06:34;;;;;;;;;;;;;;;25.53;19.92;100977.63;5019205;28;877;-42
2022/01/22 00:08:59;;;;;;;;;;;;;;;25.57;20.04;100967.38;5027670;28;829;-43
2022/01/22 00:11:29;;;;;;;;;;;;;;;25.53;19.94;100966.00;5018963;28;844;-42
2022/01/22 00:16:38;;;;;;;;;;;;;;;25.53;20.10;100964.16;5033782;28;592;-42
2022/01/22 00:19:08;;;;;;;;;;;;;;;25.75;20.04;100964.56;5038212;28;958;-42
2022/01/22 00:21:33;;;;;;;;;;;;;;;25.73;20.05;100968.41;5037958;28;886;-39
2022/01/22 00:24:01;;;;;;;;;;;;;;;26.73;19.37;100965.53;5036705;28;864;-42
2022/01/22 00:26:27;;;;;;;;;;;;;;;26.98;18.58;100974.38;5018881;28;1006;-41
2022/01/22 00:28:52;;;;;;;;;;;;;;;26.35;19.55;100972.44;5019003;28;815;-41
2022/01/22 00:31:17;;;;;;;;;;;;;;;26.47;19.55;100972.91;5018839;28;973;-41
2022/01/22 00:33:43;;;;;;;;;;;;;;;26.34;19.78;100972.59;5018904;28;1910;-42
2022/01/22 00:36:08;;;;;;;;;;;;;;;26.38;19.41;100963.13;5018818;28;782;-41
2022/01/22 00:38:33;;;;;;;;;;;;;;;26.46;19.59;100965.81;5024803;28;822;-42
2022/01/22 00:40:59;;;;;;;;;;;;;;;27.41;18.63;100964.19;5032969;28;848;-41
2022/01/22 00:43:25;;;;;;;;;;;;;;;27.92;17.88;100955.53;5038086;28;738;-42
2022/01/22 00:45:50;;;;;;;;;;;;;;;28.04;17.87;100949.66;5037778;28;771;-41
2022/01/22 00:48:16;;;;;;;;;;;;;;;28.18;18.08;100954.25;5037781;28;946;-42
2022/01/22 00:50:41;;;;;;;;;;;;;;;28.43;17.62;100947.75;5025788;28;1032;-42
2022/01/22 00:53:06;;;;;;;;;;;;;;;28.71;17.36;100957.91;5018638;28;878;-42
2022/01/22 00:55:31;;;;;;;;;;;;;;;28.85;17.36;100954.34;5020735;28;1930;-42
2022/01/22 00:57:57;;;;;;;;;;;;;;;29.03;17.08;100958.53;5018351;28;810;-42
2022/01/22 01:00:22;;;;;;;;;;;;;;;29.17;16.76;100953.25;5017983;28;831;-42
2022/01/22 01:02:48;;;;;;;;;;;;;;;29.43;16.73;100965.38;5021358;28;820;-42
2022/01/22 01:05:13;;;;;;;;;;;;;;;28.64;17.31;100962.41;5021471;28;723;-40
2022/01/22 01:07:39;;;;;;;;;;;;;;;27.98;18.02;100954.78;5018353;28;826;-42
2022/01/22 01:10:08;;;;;;;;;;;;;;;27.85;18.53;100951.88;5018823;28;1501;-43
2022/01/22 01:12:34;;;;;;;;;;;;;;;27.76;18.52;100948.41;5018238;28;716;-42
2022/01/22 01:15:14;;;;;;;;;;;;;;;27.75;18.56;100941.31;5017872;28;1902;-42
2022/01/22 01:34:16;;;;;;;;;;;;;;;26.89;19.66;100926.84;4994488;28;1977;-42
2022/01/22 01:36:42;;;;;;;;;;;;;;;26.83;19.69;100930.25;5017667;28;770;-43
2022/01/22 01:39:11;;;;;;;;;;;;;;;26.85;19.61;100928.22;5018013;28;818;-42
2022/01/22 01:41:51;;;;;;;;;;;;;;;26.81;19.74;100927.72;5018237;28;816;-43
2022/01/22 01:44:16;;;;;;;;;;;;;;;26.75;19.82;100926.59;5017380;28;838;-42
2022/01/22 01:46:42;;;;;;;;;;;;;;;26.82;19.53;100928.56;5017927;28;815;-42
2022/01/22 01:49:08;;;;;;;;;;;;;;;26.90;19.57;100926.69;5019570;28;990;-43
2022/01/22 01:51:34;;;;;;;;;;;;;;;26.87;19.33;100918.09;5036381;28;967;-42
2022/01/22 01:54:07;;;;;;;;;;;;;;;27.58;18.76;100922.50;5035785;28;1914;-43
2022/01/22 01:59:16;;;;;;;;;;;;;;;28.09;18.55;100923.75;5017818;28;1367;-42
2022/01/22 02:01:42;;;;;;;;;;;;;;;28.36;18.29;100909.81;5036124;28;739;-43
2022/01/22 02:04:10;;;;;;;;;;;;;;;28.56;18.05;100920.06;5021801;28;801;-43
2022/01/22 02:06:35;;;;;;;;;;;;;;;28.28;18.11;100916.09;5021014;28;1152;-42
2022/01/22 02:09:01;;;;;;;;;;;;;;;27.56;19.11;100913.75;5018371;28;845;-43
2022/01/22 02:11:27;;;;;;;;;;;;;;;27.67;18.94;100908.94;5031385;28;799;-42
2022/01/22 02:24:50;;;;;;;;;;;;;;;26.92;19.70;100890.56;5018765;28;644;-42
2022/01/22 02:27:15;;;;;;;;;;;;;;;26.90;19.49;100874.53;5016667;28;826;-43
2022/01/22 02:29:41;;;;;;;;;;;;;;;26.76;19.70;100876.13;5016923;28;1374;-42
2022/01/22 02:34:53;;;;;;;;;;;;;;;27.29;19.13;100871.94;5016467;28;1913;-42
2022/01/22 02:37:21;;;;;;;;;;;;;;;27.36;19.00;100875.59;5016663;28;798;-43
2022/01/22 02:40:00;;;;;;;;;;;;;;;26.94;19.42;100875.03;5021106;28;826;-41
2022/01/22 02:42:32;;;;;;;;;;;;;;;27.59;19.07;100877.44;5035061;28;826;-43
2022/01/22 02:44:57;;;;;;;;;;;;;;;27.95;18.39;100871.34;5035134;28;885;-42
2022/01/22 02:47:23;;;;;;;;;;;;;;;28.07;18.21;100873.59;5016792;28;869;-41
2022/01/22 02:49:48;;;;;;;;;;;;;;;28.23;18.26;100877.94;5016966;28;970;-42
2022/01/22 02:52:17;;;;;;;;;;;;;;;28.42;18.14;100868.47;5016695;28;739;-42
2022/01/22 02:54:42;;;;;;;;;;;;;;;28.70;17.82;100875.88;5017077;28;1914;-42
2022/01/22 02:57:09;;;;;;;;;;;;;;;27.99;18.02;100875.34;5016148;28;955;-42
2022/01/22 02:59:34;;;;;;;;;;;;;;;27.62;18.95;100866.25;5017196;28;809;-42
2022/01/22 03:02:01;;;;;;;;;;;;;;;27.68;18.85;100865.53;5016584;28;752;-42
2022/01/22 03:04:26;;;;;;;;;;;;;;;27.63;18.94;100862.50;5016313;28;818;-43
2022/01/22 03:06:51;;;;;;;;;;;;;;;27.57;19.12;100858.69;5016431;28;912;-42
2022/01/22 03:09:18;;;;;;;;;;;;;;;27.29;19.46;100861.13;5017850;28;822;-42
2022/01/22 03:12:46;;;;;;;;;;;;;;;27.22;19.36;100866.41;5022339;28;775;-43
2022/01/22 03:22:25;;;;;;;;;;;;;;;26.92;20.03;100850.06;5039713;28;798;-42
2022/01/22 03:27:35;;;;;;;;;;;;;;;27.47;19.15;100850.00;5026561;28;754;-42
2022/01/22 03:30:00;;;;;;;;;;;;;;;27.10;19.84;100844.41;5020028;28;840;-42
2022/01/22 03:32:29;;;;;;;;;;;;;;;27.57;19.17;100849.75;5020000;28;865;-42
2022/01/22 03:34:57;;;;;;;;;;;;;;;27.99;18.64;100850.19;5019516;28;1906;-42
2022/01/22 03:37:23;;;;;;;;;;;;;;;28.15;18.89;100853.72;5019882;28;842;-41
2022/01/22 03:39:48;;;;;;;;;;;;;;;28.40;18.31;100851.56;5021825;28;948;-43
2022/01/22 03:42:13;;;;;;;;;;;;;;;28.55;18.24;100856.09;5019632;28;846;-42
2022/01/22 03:44:39;;;;;;;;;;;;;;;28.70;18.32;100856.91;5019949;28;786;-42
2022/01/22 03:47:05;;;;;;;;;;;;;;;28.51;18.29;100857.53;5019916;28;734;-42
2022/01/22 03:49:30;;;;;;;;;;;;;;;28.08;18.43;100849.06;5019382;28;866;-43
2022/01/22 03:51:55;;;;;;;;;;;;;;;27.93;18.68;100843.66;5021916;28;1026;-43
2022/01/22 03:54:21;;;;;;;;;;;;;;;27.79;19.19;100839.94;5031860;28;1899;-42
2022/01/22 03:56:47;;;;;;;;;;;;;;;27.90;19.15;100840.47;5019504;28;825;-41
2022/01/22 03:59:13;;;;;;;;;;;;;;;27.70;19.28;100838.31;5019311;28;845;-41
2022/01/22 04:04:14;;;;;;;;;;;;;;;25.92;13.22;100840.56;5019580;28;833;-42
2022/01/22 04:09:26;;;;;;;;;;;;;;;27.81;12.64;100847.84;5019139;28;872;-42
2022/01/22 04:11:53;;;;;;;;;;;;;;;25.10;12.36;100844.97;5038055;28;798;-42
2022/01/22 04:14:25;;;;;;;;;;;;;;;24.35;12.62;100834.88;5031694;28;1898;-41
2022/01/22 04:24:59;;;;;;;;;;;;;;;23.55;14.05;100851.03;5034148;28;816;-42
2022/01/22 04:27:26;;;;;;;;;;;;;;;23.07;13.55;100848.56;5031529;28;853;-42
2022/01/22 04:29:52;;;;;;;;;;;;;;;23.44;14.51;100849.41;5019036;28;822;-42
2022/01/22 04:32:18;;;;;;;;;;;;;;;22.60;14.46;100847.78;5018932;28;845;-42
2022/01/22 04:34:43;;;;;;;;;;;;;;;22.42;13.87;100854.88;5018626;28;1914;-43
2022/01/22 04:37:09;;;;;;;;;;;;;;;22.31;14.20;100855.91;5018945;28;901;-42
2022/01/22 04:39:36;;;;;;;;;;;;;;;21.86;13.84;100864.53;5018307;28;881;-42
2022/01/22 04:42:01;;;;;;;;;;;;;;;22.18;14.18;100864.28;5018862;28;830;-42
2022/01/22 04:44:32;;;;;;;;;;;;;;;21.58;13.67;100863.56;5018991;28;892;-41
2022/01/22 04:47:13;;;;;;;;;;;;;;;20.92;14.01;100864.94;5018515;28;851;-42
2022/01/22 04:54:58;;;;;;;;;;;;;;;23.62;14.10;100870.03;5007060;28;1447;-29
2022/01/22 04:55:26;;;;;;;;;;;;;;;22.30;15.90;100871.16;5024458;28;1922;-27
2022/01/22 04:57:51;;;;;;;;;;;;;;;22.21;16.25;100864.84;5029360;28;1347;-32
2022/01/22 05:00:19;;;;;;;;;;;;;;;22.72;16.09;100860.97;5030113;28;1403;-29
2022/01/22 05:02:44;;;;;;;;;;;;;;;24.55;15.12;100880.31;5025641;28;1328;-28
2022/01/22 05:05:10;;;;;;;;;;;;;;;24.97;15.45;100870.56;5025745;28;855;-32
2022/01/22 05:07:35;;;;;;;;;;;;;;;24.90;15.86;100880.25;5028464;28;825;-28
2022/01/22 05:10:02;;;;;;;;;;;;;;;24.35;14.89;100867.13;5021367;28;1229;-31
2022/01/22 05:12:27;;;;;;;;;;;;;;;24.61;15.82;100857.31;5023834;28;1549;-28
2022/01/22 05:14:52;;;;;;;;;;;;;;;25.10;16.00;100861.13;5021356;28;1967;-33
2022/01/22 05:17:19;;;;;;;;;;;;;;;25.60;16.22;100867.38;5021496;28;859;-29
2022/01/22 05:19:54;;;;;;;;;;;;;;;25.60;16.47;100869.22;5022187;28;821;-28
2022/01/22 05:24:58;;;;;;;;;;;;;;;25.49;17.20;100876.63;5029836;28;853;-30
2022/01/22 05:27:47;;;;;;;;;;;;;;;25.49;17.29;100871.22;5019235;28;901;-29
2022/01/22 05:38:00;;;;;;;;;;;;;;;26.77;16.36;100872.44;5020469;28;640;-27
2022/01/22 05:40:27;;;;;;;;;;;;;;;26.91;16.11;100878.91;5011874;28;902;-29
2022/01/22 05:42:52;;;;;;;;;;;;;;;27.02;16.26;100883.97;5018009;28;1021;-27
2022/01/22 05:45:18;;;;;;;;;;;;;;;27.10;16.32;100884.91;5017752;28;989;-28
2022/01/22 05:47:44;;;;;;;;;;;;;;;27.15;16.20;100885.19;5017968;28;862;-31
2022/01/22 05:50:23;;;;;;;;;;;;;;;27.19;16.36;100886.53;5023352;28;1233;-32
2022/01/22 05:52:56;;;;;;;;;;;;;;;26.85;16.74;100879.63;5025358;28;843;-28
2022/01/22 06:00:49;;;;;;;;;;;;;;;27.33;16.22;100887.59;5019786;28;1248;-31
2022/01/22 06:03:14;;;;;;;;;;;;;;;27.33;16.68;100879.50;5017715;28;1442;-25
2022/01/22 06:05:40;;;;;;;;;;;;;;;27.84;16.19;100879.91;5022227;28;1372;-29
2022/01/22 06:08:05;;;;;;;;;;;;;;;28.18;15.96;100878.53;5025122;28;1549;-28
2022/01/22 06:10:33;;;;;;;;;;;;;;;28.48;15.60;100878.53;5023523;28;1172;-32
2022/01/22 06:13:14;;;;;;;;;;;;;;;28.78;15.28;100874.91;5027821;28;1245;-29
2022/01/22 06:15:39;;;;;;;;;;;;;;;28.88;15.27;100880.00;5024704;28;1906;-27
2022/01/22 06:18:04;;;;;;;;;;;;;;;29.04;15.20;100851.88;5027249;28;1037;-29
2022/01/22 06:20:30;;;;;;;;;;;;;;;28.81;15.47;100862.88;5029853;28;1294;-33
2022/01/22 06:22:55;;;;;;;;;;;;;;;27.71;16.41;100853.53;5029140;28;1258;-30
2022/01/22 06:25:20;;;;;;;;;;;;;;;27.40;16.99;100860.69;5023162;28;1021;-27
2022/01/22 06:27:46;;;;;;;;;;;;;;;28.27;16.00;100863.03;5019571;28;862;-28
2022/01/22 06:30:11;;;;;;;;;;;;;;;28.73;15.87;100855.69;5016909;28;917;-28
2022/01/22 06:32:37;;;;;;;;;;;;;;;29.00;15.78;100852.44;5026239;28;760;-29
2022/01/22 06:35:02;;;;;;;;;;;;;;;29.09;15.76;100852.13;5026442;28;1980;-28
2022/01/22 06:37:27;;;;;;;;;;;;;;;29.23;15.42;100848.72;4999274;28;1424;-30
2022/01/22 06:42:47;;;;;;;;;;;;;;;29.58;15.32;100838.75;4982649;28;1099;-31
2022/01/22 06:45:12;;;;;;;;;;;;;;;29.80;15.25;100849.56;5017835;28;926;-28
2022/01/22 06:47:38;;;;;;;;;;;;;;;29.76;15.31;100855.59;5016326;28;847;-28
2022/01/22 06:50:03;;;;;;;;;;;;;;;28.55;16.31;100858.81;5020854;28;970;-31
2022/01/22 06:52:29;;;;;;;;;;;;;;;27.42;17.01;100857.81;5017202;28;870;-29
2022/01/22 06:54:55;;;;;;;;;;;;;;;27.33;16.92;100860.59;5020902;28;1908;-29
2022/01/22 06:57:20;;;;;;;;;;;;;;;29.05;15.87;100858.97;5030210;28;1383;-27
2022/01/22 06:59:47;;;;;;;;;;;;;;;29.45;15.46;100869.31;5021093;28;1375;-27
2022/01/22 07:02:13;;;;;;;;;;;;;;;29.70;15.25;100870.78;5018136;28;1462;-29
2022/01/22 07:04:39;;;;;;;;;;;;;;;29.94;15.21;100865.94;5019456;28;1492;-39
2022/01/22 07:07:04;;;;;;;;;;;;;;;29.93;15.32;100862.38;5029562;28;865;-36
2022/01/22 07:09:30;;;;;;;;;;;;;;;29.26;15.61;100867.28;5032096;28;1003;-34
2022/01/22 07:11:55;;;;;;;;;;;;;;;29.09;15.78;100862.94;5030695;28;1265;-35
2022/01/22 07:14:20;;;;;;;;;;;;;;;29.01;15.95;100848.72;5020724;28;1945;-36
2022/01/22 07:16:46;;;;;;;;;;;;;;;29.04;16.08;100842.91;5016948;28;796;-36
2022/01/22 07:19:17;;;;;;;;;;;;;;;29.32;15.95;100847.53;5016486;28;977;-35
2022/01/22 07:21:43;;;;;;;;;;;;;;;29.91;15.22;100839.22;5027625;28;810;-34
2022/01/22 07:24:23;;;;;;;;;;;;;;;29.96;15.15;100836.75;5032819;28;885;-37
2022/01/22 07:26:51;;;;;;;;;;;;;;;28.96;16.05;100830.31;5025990;28;917;-38
2022/01/22 07:29:16;;;;;;;;;;;;;;;28.15;16.54;100824.81;5032299;28;1367;-36
2022/01/22 07:31:42;;;;;;;;;;;;;;;27.83;16.82;100816.03;5019086;28;802;-38
2022/01/22 07:34:07;;;;;;;;;;;;;;;27.77;17.14;100812.25;5017027;28;1905;-36
2022/01/22 07:36:32;;;;;;;;;;;;;;;26.87;18.10;100810.13;5016361;28;868;-39
2022/01/22 07:38:58;;;;;;;;;;;;;;;28.07;16.71;100811.38;5015374;28;766;-39
2022/01/22 07:41:23;;;;;;;;;;;;;;;28.61;16.38;100820.19;5029281;28;831;-39
2022/01/22 07:43:48;;;;;;;;;;;;;;;28.78;16.18;100815.34;5035500;28;891;-38
2022/01/22 07:46:14;;;;;;;;;;;;;;;28.80;16.37;100816.00;5034853;28;839;-40
2022/01/22 07:48:39;;;;;;;;;;;;;;;28.85;16.29;100813.53;5034916;28;850;-39
2022/01/22 07:51:04;;;;;;;;;;;;;;;28.93;16.06;100811.72;5018012;28;1072;-36
2022/01/22 07:53:30;;;;;;;;;;;;;;;28.79;16.37;100822.44;5015483;28;1100;-37
2022/01/22 07:55:55;;;;;;;;;;;;;;;28.68;16.42;100821.06;5022638;28;1910;-36
2022/01/22 07:58:20;;;;;;;;;;;;;;;28.51;16.58;100814.22;5016542;28;763;-39
2022/01/22 08:00:46;;;;;;;;;;;;;;;28.55;16.68;100823.63;5016367;28;921;-35
2022/01/22 08:03:11;;;;;;;;;;;;;;;28.60;16.47;100832.88;5030865;28;911;-38
2022/01/22 08:05:36;;;;;;;;;;;;;;;28.61;16.63;100836.41;5020595;28;766;-38
2022/01/22 08:08:03;;;;;;;;;;;;;;;28.41;16.49;100828.06;5020966;28;1359;-39
2022/01/22 08:10:28;;;;;;;;;;;;;;;26.78;18.01;100823.69;5018903;28;1246;-36
2022/01/22 08:12:55;;;;;;;;;;;;;;;26.91;18.09;100814.13;5018374;28;901;-39
2022/01/22 08:15:21;;;;;;;;;;;;;;;28.05;17.08;100810.72;5034114;28;1894;-39
2022/01/22 08:17:46;;;;;;;;;;;;;;;29.12;15.80;100809.44;5028509;28;1230;-37
2022/01/22 08:20:14;;;;;;;;;;;;;;;29.49;15.63;100812.00;5022999;28;1356;-31
2022/01/22 08:22:39;;;;;;;;;;;;;;;29.70;15.41;100811.97;5027279;28;1285;-33
2022/01/22 08:25:05;;;;;;;;;;;;;;;29.87;15.43;100822.50;5027536;28;1431;-29
2022/01/22 08:29:56;;;;;;;;;;;;;;;29.85;15.07;100819.13;5018660;28;1166;-32
2022/01/22 08:37:49;;;;;;;;;;;;;;;27.70;16.42;100803.19;5028620;28;640;-31
2022/01/22 08:40:14;;;;;;;;;;;;;;;27.28;16.51;100800.06;5025247;28;846;-33
2022/01/22 08:42:40;;;;;;;;;;;;;;;27.05;17.09;100800.91;5025505;28;814;-32
2022/01/22 08:45:05;;;;;;;;;;;;;;;27.18;17.25;100797.56;5018281;28;835;-34
2022/01/22 08:47:31;;;;;;;;;;;;;;;27.37;16.55;100788.97;5029791;28;1446;-32
2022/01/22 08:49:56;;;;;;;;;;;;;;;26.39;17.98;100794.91;5029929;28;961;-32
2022/01/22 08:52:26;;;;;;;;;;;;;;;26.20;17.96;100793.44;5024609;28;1076;-32
2022/01/22 08:54:51;;;;;;;;;;;;;;;27.35;17.44;100785.63;5024089;28;1914;-32
2022/01/22 08:57:18;;;;;;;;;;;;;;;27.53;14.55;100781.72;5037804;28;818;-29
2022/01/22 08:59:43;;;;;;;;;;;;;;;28.77;15.00;100774.94;5024459;28;1367;-33
2022/01/22 09:02:08;;;;;;;;;;;;;;;29.18;14.53;100768.84;5019049;28;850;-30
2022/01/22 09:04:34;;;;;;;;;;;;;;;29.46;14.83;100767.19;5034276;28;893;-34
2022/01/22 09:06:59;;;;;;;;;;;;;;;28.94;15.69;100765.53;5034672;28;826;-31
2022/01/22 09:09:25;;;;;;;;;;;;;;;28.51;16.19;100766.34;5022165;28;951;-30
2022/01/22 09:11:51;;;;;;;;;;;;;;;28.51;16.30;100760.94;5033745;28;798;-34
2022/01/22 09:14:16;;;;;;;;;;;;;;;28.66;16.22;100763.59;5037168;28;1948;-33
2022/01/22 09:16:41;;;;;;;;;;;;;;;28.76;16.14;100747.00;5037473;28;838;-31
2022/01/22 09:19:09;;;;;;;;;;;;;;;28.60;16.27;100743.56;5037086;28;1485;-29
2022/01/22 09:21:35;;;;;;;;;;;;;;;28.58;16.35;100748.31;5032151;28;866;-29
2022/01/22 09:24:00;;;;;;;;;;;;;;;28.65;16.06;100740.25;5035607;28;897;-30
2022/01/22 09:26:25;;;;;;;;;;;;;;;28.65;16.26;100734.84;5026169;28;972;-32
2022/01/22 09:28:51;;;;;;;;;;;;;;;28.69;16.39;100738.00;5017879;28;970;-31
2022/01/22 09:31:17;;;;;;;;;;;;;;;28.73;16.15;100723.88;5018170;28;851;-34
2022/01/22 09:33:43;;;;;;;;;;;;;;;28.83;16.19;100728.13;5019271;28;824;-31
2022/01/22 09:36:08;;;;;;;;;;;;;;;28.30;16.57;100727.41;5017769;28;1965;-31
2022/01/22 09:38:34;;;;;;;;;;;;;;;27.72;17.43;100718.22;5017933;28;808;-31
2022/01/22 09:41:00;;;;;;;;;;;;;;;27.68;17.30;100716.91;5029176;28;892;-31
2022/01/22 09:43:25;;;;;;;;;;;;;;;28.89;16.61;100716.53;5036914;28;755;-34
2022/01/22 09:45:51;;;;;;;;;;;;;;;29.23;15.91;100714.06;5031542;28;877;-29
2022/01/22 09:48:16;;;;;;;;;;;;;;;28.06;17.31;100707.78;5017860;28;861;-30
2022/01/22 09:50:42;;;;;;;;;;;;;;;27.87;17.27;100701.97;5020548;28;1021;-30
2022/01/22 09:53:07;;;;;;;;;;;;;;;27.83;17.67;100699.81;5017831;28;798;-34
2022/01/22 09:55:32;;;;;;;;;;;;;;;27.71;17.58;100702.19;5026543;28;1981;-34
2022/01/22 09:57:58;;;;;;;;;;;;;;;27.77;17.38;100703.28;5033436;28;795;-32
2022/01/22 10:00:25;;;;;;;;;;;;;;;27.75;17.41;100701.63;5016947;28;1013;-30
2022/01/22 10:02:51;;;;;;;;;;;;;;;27.71;17.82;100700.31;5032859;28;831;-32
2022/01/22 10:05:45;;;;;;;;;;;;;;;27.45;17.54;100698.06;5036391;28;1123;-35
2022/01/22 10:08:24;;;;;;;;;;;;;;;27.05;18.35;100695.59;5007071;28;1238;-33
2022/01/22 10:10:50;;;;;;;;;;;;;;;26.74;18.57;100687.41;5020098;28;1589;-33
2022/01/22 10:13:15;;;;;;;;;;;;;;;26.79;18.56;100689.59;5017749;28;1505;-34
2022/01/22 10:15:40;;;;;;;;;;;;;;;26.79;18.59;100689.59;5008203;28;1976;-31
2022/01/22 10:18:06;;;;;;;;;;;;;;;26.68;18.83;100684.59;5036380;28;839;-32
2022/01/22 10:20:39;;;;;;;;;;;;;;;27.00;18.48;100678.09;5025091;28;1185;-34
2022/01/22 10:23:21;;;;;;;;;;;;;;;26.83;18.74;100677.38;5018258;28;1550;-33
2022/01/22 10:25:52;;;;;;;;;;;;;;;28.18;17.12;100674.81;5017385;28;1439;-32
2022/01/22 10:28:23;;;;;;;;;;;;;;;28.69;17.22;100681.16;5022544;28;1212;-29
2022/01/22 10:31:10;;;;;;;;;;;;;;;28.99;16.89;100683.72;5020337;28;1442;-30
2022/01/22 10:33:36;;;;;;;;;;;;;;;29.29;16.21;100667.25;5023746;28;1396;-33
2022/01/22 10:36:18;;;;;;;;;;;;;;;29.57;15.95;100665.50;5029734;28;1977;-32
2022/01/22 10:38:45;;;;;;;;;;;;;;;29.71;15.91;100661.00;5027517;28;1549;-32
2022/01/22 10:41:11;;;;;;;;;;;;;;;29.78;16.19;100659.13;5017062;28;869;-33
2022/01/22 10:43:42;;;;;;;;;;;;;;;29.73;16.09;100656.19;5019532;28;1192;-32
2022/01/22 10:48:44;;;;;;;;;;;;;;;29.21;16.35;100656.56;5021277;28;1268;-32
2022/01/22 10:51:13;;;;;;;;;;;;;;;29.56;16.22;100658.41;5031972;28;1199;-30
2022/01/22 10:53:38;;;;;;;;;;;;;;;29.92;15.87;100656.47;5035897;28;1167;-35
2022/01/22 10:56:04;;;;;;;;;;;;;;;29.99;15.99;100646.47;5024307;28;1902;-31
2022/01/22 10:58:30;;;;;;;;;;;;;;;30.12;15.78;100647.53;5016746;28;1185;-32
2022/01/22 11:00:59;;;;;;;;;;;;;;;30.04;15.55;100652.13;5000202;28;1385;-30
2022/01/22 11:03:26;;;;;;;;;;;;;;;30.10;15.58;100644.19;5016603;28;818;-36
2022/01/22 11:05:51;;;;;;;;;;;;;;;30.31;15.37;100648.66;5016687;28;849;-37
2022/01/22 11:08:16;;;;;;;;;;;;;;;30.31;15.28;100644.03;5016502;28;1244;-36
2022/01/22 11:10:43;;;;;;;;;;;;;;;30.13;15.39;100647.31;5028566;28;869;-31
2022/01/22 11:13:08;;;;;;;;;;;;;;;29.92;15.53;100632.91;5035364;28;847;-30
2022/01/22 11:15:34;;;;;;;;;;;;;;;30.00;15.67;100633.72;5022901;28;1901;-36
2022/01/22 11:17:59;;;;;;;;;;;;;;;30.13;15.48;100624.81;5016370;28;783;-35
2022/01/22 11:20:24;;;;;;;;;;;;;;;30.30;15.37;100627.97;4999209;28;976;-36
2022/01/22 11:22:50;;;;;;;;;;;;;;;30.29;15.51;100623.59;5017368;28;817;-38
2022/01/22 11:25:15;;;;;;;;;;;;;;;29.93;15.67;100626.44;5000566;28;900;-34
2022/01/22 11:27:40;;;;;;;;;;;;;;;28.73;16.38;100622.88;5016267;28;785;-33
2022/01/22 11:30:07;;;;;;;;;;;;;;;28.79;16.55;100621.28;5016497;28;810;-33
2022/01/22 11:32:34;;;;;;;;;;;;;;;29.15;16.31;100620.28;5016783;28;828;-35
2022/01/22 11:35:01;;;;;;;;;;;;;;;29.99;15.76;100624.78;5016541;28;1906;-36
2022/01/22 11:37:26;;;;;;;;;;;;;;;30.20;15.51;100620.22;5018460;28;839;-35
2022/01/22 11:40:11;;;;;;;;;;;;;;;30.33;15.44;100621.31;5022960;28;935;-36
2022/01/22 11:43:01;;;;;;;;;;;;;;;30.37;15.37;100617.13;5031600;28;791;-37
2022/01/22 11:45:39;;;;;;;;;;;;;;;30.09;15.77;100616.25;5034696;28;877;-32
2022/01/22 11:48:10;;;;;;;;;;;;;;;30.05;15.64;100609.53;5039402;28;786;-33
2022/01/22 11:50:35;;;;;;;;;;;;;;;29.90;15.82;100609.72;5025244;28;1162;-35
2022/01/22 11:53:19;;;;;;;;;;;;;;;29.91;15.97;100614.94;5019512;28;1229;-32
2022/01/22 11:56:05;;;;;;;;;;;;;;;30.32;15.67;100617.75;5019511;28;1979;-36
2022/01/22 11:58:30;;;;;;;;;;;;;;;30.42;15.81;100607.31;5032794;28;1429;-35
2022/01/22 12:00:55;;;;;;;;;;;;;;;30.68;15.49;100602.06;5026497;28;834;-34
2022/01/22 12:03:20;;;;;;;;;;;;;;;30.35;15.59;100605.63;5019738;28;993;-35
2022/01/22 12:05:49;;;;;;;;;;;;;;;30.01;15.95;100603.69;5019188;28;773;-33
2022/01/22 12:08:15;;;;;;;;;;;;;;;30.17;15.81;100602.47;5019716;28;917;-34
2022/01/22 12:10:42;;;;;;;;;;;;;;;29.87;16.35;100602.84;5020461;28;1042;-33
2022/01/22 12:16:10;;;;;;;;;;;;;;;30.34;16.01;100598.53;5019067;28;1906;-31
2022/01/22 12:18:39;;;;;;;;;;;;;;;30.39;16.11;100596.88;5018812;28;882;-32
2022/01/22 12:23:32;;;;;;;;;;;;;;;30.60;15.78;100602.28;5025432;28;714;-36
2022/01/22 12:26:01;;;;;;;;;;;;;;;30.10;16.00;100603.50;5030136;28;1012;-34
2022/01/22 12:28:36;;;;;;;;;;;;;;;30.41;16.19;100602.91;5037957;28;868;-32
2022/01/22 12:31:02;;;;;;;;;;;;;;;30.39;16.02;100596.03;5032175;28;1567;-34
2022/01/22 12:33:28;;;;;;;;;;;;;;;30.36;16.22;100597.31;5019118;28;988;-35
2022/01/22 12:35:56;;;;;;;;;;;;;;;30.53;16.03;100599.59;5020701;28;1973;-35
2022/01/22 12:38:38;;;;;;;;;;;;;;;30.54;15.84;100593.94;5020039;28;878;-32
2022/01/22 12:44:10;;;;;;;;;;;;;;;30.51;15.44;100588.91;5022671;28;868;-32
2022/01/22 12:46:36;;;;;;;;;;;;;;;30.51;15.36;100599.78;5018892;28;841;-35
2022/01/22 12:49:04;;;;;;;;;;;;;;;30.54;15.22;100602.09;5020009;28;1160;-31
2022/01/22 12:51:30;;;;;;;;;;;;;;;30.66;15.04;100604.16;5024884;28;1041;-33
2022/01/22 12:53:56;;;;;;;;;;;;;;;30.22;15.11;100598.31;5018145;28;1291;-31
2022/01/22 12:56:49;;;;;;;;;;;;;;;29.57;15.77;100608.56;5003863;28;1234;-32
2022/01/22 12:59:10;;;;;;;;;;;;;;;30.34;14.86;100612.94;5018288;28;1488;-35
2022/01/22 13:01:35;;;;;;;;;;;;;;;29.72;15.43;100613.88;5018380;28;822;-33
2022/01/22 13:04:03;;;;;;;;;;;;;;;29.48;15.58;100617.94;5030267;28;1173;-35
2022/01/22 13:06:39;;;;;;;;;;;;;;;29.41;15.68;100612.47;5035284;28;830;-33
2022/01/22 13:09:04;;;;;;;;;;;;;;;29.30;15.73;100612.00;5018203;28;804;-32
2022/01/22 13:11:31;;;;;;;;;;;;;;;29.36;15.76;100606.84;5025063;28;1163;-35
2022/01/22 13:13:56;;;;;;;;;;;;;;;29.90;15.68;100610.56;5030611;28;1208;-30
2022/01/22 13:16:22;;;;;;;;;;;;;;;30.05;15.43;100606.84;5027152;28;1054;-36
2022/01/22 13:18:51;;;;;;;;;;;;;;;29.80;15.52;100602.84;5024328;28;762;-35
2022/01/22 13:21:17;;;;;;;;;;;;;;;29.62;15.67;100602.56;5030498;28;810;-35
2022/01/22 13:23:43;;;;;;;;;;;;;;;29.89;15.51;100614.34;5021807;28;1173;-31
2022/01/22 13:26:08;;;;;;;;;;;;;;;30.03;15.49;100609.75;5026298;28;899;-33
2022/01/22 13:28:34;;;;;;;;;;;;;;;30.10;15.48;100607.06;5027009;28;1210;-31
2022/01/22 13:31:05;;;;;;;;;;;;;;;30.04;15.48;100616.88;5018791;28;920;-33
2022/01/22 13:33:42;;;;;;;;;;;;;;;30.39;15.25;100615.88;5000548;28;1379;-35
2022/01/22 13:49:35;;;;;;;;;;;;;;;30.77;15.10;100614.38;5019676;28;993;-33
2022/01/22 13:52:01;;;;;;;;;;;;;;;30.85;14.83;100616.06;5017765;28;849;-35
2022/01/22 13:54:30;;;;;;;;;;;;;;;29.13;14.70;100611.50;5019008;28;1978;-31
2022/01/22 13:56:58;;;;;;;;;;;;;;;28.87;15.56;100617.56;5036510;28;850;-30
2022/01/22 13:59:24;;;;;;;;;;;;;;;30.05;15.21;100614.97;5035202;28;917;-33
2022/01/22 14:02:12;;;;;;;;;;;;;;;30.07;15.09;100618.31;5021529;28;815;-36
2022/01/22 14:04:38;;;;;;;;;;;;;;;30.03;15.26;100623.31;5017188;28;818;-32
2022/01/22 14:07:13;;;;;;;;;;;;;;;30.15;15.31;100622.69;5017366;28;785;-30
2022/01/22 14:09:49;;;;;;;;;;;;;;;30.15;15.24;100626.25;5018084;28;921;-34
2022/01/22 14:12:15;;;;;;;;;;;;;;;30.26;15.23;100630.25;5018108;28;796;-32
2022/01/22 14:14:53;;;;;;;;;;;;;;;30.17;15.10;100620.63;4999043;28;1898;-34
2022/01/22 14:17:20;;;;;;;;;;;;;;;29.77;15.69;100621.38;5026272;28;1279;-30
2022/01/22 14:19:45;;;;;;;;;;;;;;;30.42;15.20;100623.59;5017126;28;770;-30
2022/01/22 14:22:10;;;;;;;;;;;;;;;30.32;15.23;100606.88;5016970;28;866;-32
2022/01/22 14:24:36;;;;;;;;;;;;;;;30.31;15.39;100619.63;5017249;28;888;-32
2022/01/22 14:27:01;;;;;;;;;;;;;;;30.25;15.43;100616.91;5033727;28;837;-34
2022/01/22 14:29:26;;;;;;;;;;;;;;;30.36;15.56;100616.28;5031645;28;1185;-33
2022/01/22 14:31:54;;;;;;;;;;;;;;;30.35;15.42;100625.47;5029511;28;1216;-33
2022/01/22 14:34:36;;;;;;;;;;;;;;;29.98;15.76;100633.13;5026619;28;1999;-32
2022/01/22 14:37:02;;;;;;;;;;;;;;;30.17;15.83;100632.31;5022747;28;1254;-34
2022/01/22 14:43:59;;;;;;;;;;;;;;;30.46;15.54;100632.16;5024149;28;1107;-35
2022/01/22 14:45:08;;;;;;;;;;;;;;;30.36;15.81;100650.72;5027857;28;1117;-31
2022/01/22 14:47:35;;;;;;;;;;;;;;;30.35;15.73;100649.03;5023122;28;1312;-33
2022/01/22 14:50:00;;;;;;;;;;;;;;;30.26;15.52;100657.38;5027285;28;1189;-33
2022/01/22 14:52:25;;;;;;;;;;;;;;;30.21;15.71;100650.91;5025628;28;1170;-35